createdAt,value
2023-03-13T03:25:07.739Z,9.26
2023-03-13T03:26:07.731Z,9.23
2023-03-13T03:27:07.714Z,9.26
2023-03-13T03:28:07.723Z,9.28
2023-03-13T03:29:07.716Z,9.28
2023-03-13T03:30:07.740Z,9.22
2023-03-13T03:31:07.719Z,9.28
2023-03-13T03:32:07.793Z,9.25
2023-03-13T03:33:07.725Z,9.18
2023-03-13T03:34:07.743Z,9.16
2023-03-13T03:35:07.729Z,9.25
2023-03-13T03:36:07.806Z,9.18
2023-03-13T03:37:07.742Z,9.16
2023-03-13T03:38:07.744Z,9.23
2023-03-13T03:39:07.742Z,9.19
2023-03-13T03:40:07.746Z,9.18
2023-03-13T03:41:07.782Z,9.14
2023-03-13T03:42:07.756Z,9.26
2023-03-13T03:43:07.755Z,9.11
2023-03-13T03:44:07.763Z,9.11
2023-03-13T03:45:07.766Z,9.16
2023-03-13T03:46:07.846Z,9.08
2023-03-13T03:47:07.823Z,9.08
2023-03-13T03:48:07.769Z,9.13
2023-03-13T03:49:07.767Z,9.10
2023-03-13T03:50:07.780Z,9.04
2023-03-13T03:51:07.806Z,9.10
2023-03-13T03:52:07.792Z,9.13
2023-03-13T03:53:07.778Z,9.08
2023-03-13T03:54:07.790Z,9.13
2023-03-13T03:55:07.799Z,9.10
2023-03-13T03:56:07.812Z,9.04
2023-03-13T03:57:07.818Z,9.11
2023-03-13T03:58:07.796Z,9.14
2023-03-13T03:59:07.796Z,8.99
2023-03-13T04:00:07.847Z,8.99
2023-03-13T04:01:07.803Z,9.06
2023-03-13T04:02:07.876Z,9.00
2023-03-13T04:03:07.891Z,9.13
2023-03-13T04:04:07.819Z,8.97
2023-03-13T04:05:07.822Z,9.04
2023-03-13T04:06:07.832Z,8.97
2023-03-13T04:07:07.828Z,9.04
2023-03-13T04:08:07.832Z,9.04
2023-03-13T04:09:07.829Z,8.97
2023-03-13T04:10:07.838Z,9.04
2023-03-13T04:11:07.843Z,9.04
2023-03-13T04:31:46.722Z,8.94
2023-03-13T04:32:46.806Z,8.91
2023-03-13T04:33:46.692Z,8.92
2023-03-13T04:34:46.698Z,8.85
2023-03-13T04:35:46.880Z,8.88
2023-03-13T04:36:46.698Z,8.88
2023-03-13T04:37:46.696Z,8.78
2023-03-13T04:38:46.692Z,8.88
2023-03-13T04:39:46.692Z,8.87
2023-03-13T04:40:46.701Z,8.76
2023-03-13T04:41:46.711Z,8.73
2023-03-13T04:42:46.708Z,8.70
2023-03-13T04:43:46.710Z,8.73
2023-03-13T04:44:46.714Z,8.76
2023-03-13T04:45:46.775Z,8.79
2023-03-13T04:46:46.731Z,8.76
2023-03-13T04:47:46.741Z,8.79
2023-03-13T04:48:46.726Z,8.74
2023-03-13T04:49:46.721Z,8.81
2023-03-13T04:50:46.728Z,8.74
2023-03-13T04:51:46.726Z,8.78
2023-03-13T04:52:49.449Z,8.76
2023-03-13T04:53:46.740Z,8.69
2023-03-13T04:54:46.732Z,8.78
2023-03-13T04:55:46.733Z,8.74
2023-03-13T04:56:46.736Z,8.73
2023-03-13T04:57:46.749Z,8.67
2023-03-13T04:58:47.140Z,8.71
2023-03-13T04:59:46.758Z,8.64
2023-03-13T05:00:46.749Z,8.61
2023-03-13T05:01:46.818Z,8.67
2023-03-13T05:02:46.752Z,8.71
2023-03-13T05:03:46.790Z,8.70
2023-03-13T05:04:46.785Z,8.66
2023-03-13T05:05:46.775Z,8.64
2023-03-13T05:06:46.763Z,8.71
2023-03-13T05:07:46.764Z,8.63
2023-03-13T05:08:46.775Z,8.69
2023-03-13T05:09:46.769Z,8.61
2023-03-13T05:10:46.780Z,8.63
2023-03-13T05:11:46.784Z,8.63
2023-03-13T05:12:46.780Z,8.78
2023-03-13T05:13:46.782Z,8.64
2023-03-13T05:14:46.785Z,8.63
2023-03-13T05:15:46.815Z,8.64
2023-03-13T05:16:46.790Z,8.70
2023-03-13T05:17:46.800Z,8.71
2023-03-13T05:18:46.801Z,8.76
2023-03-13T05:19:46.827Z,8.70
2023-03-13T05:20:46.817Z,8.81
2023-03-13T05:21:46.805Z,8.70
2023-03-13T05:22:46.811Z,8.70
2023-03-13T05:23:46.817Z,8.74
2023-03-13T05:24:46.812Z,8.76
2023-03-13T05:25:46.816Z,8.67
2023-03-13T05:26:46.817Z,8.67
2023-03-13T05:27:46.828Z,8.78
2023-03-13T05:28:46.822Z,8.63
2023-03-13T05:29:46.834Z,8.73
2023-03-13T05:30:46.918Z,8.66
2023-03-13T05:31:46.833Z,8.71
2023-03-13T05:32:46.919Z,8.69
2023-03-13T05:33:46.835Z,8.64
2023-03-13T05:34:46.863Z,8.60
2023-03-13T05:35:46.965Z,8.61
2023-03-13T05:36:46.859Z,8.63
2023-03-13T05:37:46.860Z,8.51
2023-03-13T05:38:46.861Z,8.60
2023-03-13T05:39:46.851Z,8.53
2023-03-13T05:40:46.856Z,8.51
2023-03-13T05:41:46.865Z,8.52
2023-03-13T05:42:46.869Z,8.52
2023-03-13T05:43:46.865Z,8.46
2023-03-13T05:44:46.866Z,8.45
2023-03-13T05:45:46.876Z,8.44
2023-03-13T05:46:46.954Z,8.51
2023-03-13T05:47:46.872Z,8.46
2023-03-13T05:48:46.877Z,8.38
2023-03-13T05:49:46.884Z,8.42
2023-03-13T05:50:46.878Z,8.44
2023-03-13T05:51:46.918Z,8.45
2023-03-13T05:52:46.884Z,8.45
2023-03-13T05:53:46.890Z,8.46
2023-03-13T05:54:46.887Z,8.36
2023-03-13T05:55:46.901Z,8.46
2023-03-13T05:56:46.893Z,8.46
2023-03-13T05:57:46.894Z,8.48
2023-03-13T05:58:46.899Z,8.45
2023-03-13T05:59:46.908Z,8.44
2023-03-13T06:00:46.907Z,8.45
2023-03-13T06:01:46.923Z,8.41
2023-03-13T06:02:46.911Z,8.41
2023-03-13T06:03:47.095Z,8.48
2023-03-13T06:04:47.072Z,8.44
2023-03-13T06:05:46.923Z,8.38
2023-03-13T06:06:46.920Z,8.51
2023-03-13T06:07:46.947Z,8.58
2023-03-13T06:08:46.930Z,8.58
2023-03-13T06:09:46.923Z,8.55
2023-03-13T06:10:46.937Z,8.56
2023-03-13T06:11:46.939Z,8.60
2023-03-13T06:12:46.934Z,8.60
2023-03-13T06:13:46.938Z,8.58
2023-03-13T06:14:46.937Z,8.69
2023-03-13T06:15:46.970Z,8.64
2023-03-13T06:16:46.943Z,8.76
2023-03-13T06:17:46.946Z,8.84
2023-03-13T06:18:46.956Z,8.87
2023-03-13T06:19:46.950Z,8.88
2023-03-13T06:20:46.948Z,8.88
2023-03-13T06:21:46.980Z,8.91
2023-03-13T06:22:46.958Z,8.89
2023-03-13T06:23:46.977Z,8.92
2023-03-13T06:24:46.973Z,8.88
2023-03-13T06:25:46.970Z,8.94
2023-03-13T06:26:49.329Z,9.03
2023-03-13T06:27:46.962Z,9.03
2023-03-13T06:28:46.973Z,8.92
2023-03-13T06:29:46.974Z,8.97
2023-03-13T06:30:46.980Z,9.14
2023-03-13T06:31:47.145Z,9.13
2023-03-13T06:32:47.153Z,9.11
2023-03-13T06:33:48.601Z,9.08
2023-03-13T06:34:46.989Z,9.11
2023-03-13T06:35:56.119Z,9.10
2023-03-13T06:36:46.994Z,9.06
2023-03-13T06:37:47.001Z,9.18
2023-03-13T06:38:46.994Z,9.21
2023-03-13T06:39:47.022Z,9.22
2023-03-13T06:40:48.021Z,9.22
2023-03-13T06:41:47.014Z,9.19
2023-03-13T06:42:47.017Z,9.18
2023-03-13T06:43:47.010Z,9.23
2023-03-13T06:44:47.019Z,9.22
2023-03-13T06:45:47.012Z,9.23
2023-03-13T06:46:47.065Z,9.16
2023-03-13T06:47:47.019Z,9.23
2023-03-13T06:48:47.028Z,9.19
2023-03-13T06:49:47.030Z,9.21
2023-03-13T06:50:47.040Z,9.19
2023-03-13T06:51:47.037Z,9.21
2023-03-13T06:52:47.030Z,9.14
2023-03-13T06:53:47.041Z,9.14
2023-03-13T06:54:47.041Z,9.06
2023-03-13T06:55:47.074Z,9.11
2023-03-13T06:56:47.049Z,9.04
2023-03-13T06:57:47.053Z,9.08
2023-03-13T06:58:47.046Z,9.14
2023-03-13T06:59:47.050Z,9.08
2023-03-13T07:00:47.139Z,9.14
2023-03-13T07:01:47.058Z,9.14
2023-03-13T07:02:47.066Z,9.14
2023-03-13T07:03:47.091Z,9.04
2023-03-13T07:04:47.067Z,9.13
2023-03-13T07:05:47.077Z,9.11
2023-03-13T07:06:47.083Z,9.06
2023-03-13T07:07:47.101Z,9.10
2023-03-13T07:08:47.085Z,9.13
2023-03-13T07:09:47.082Z,9.21
2023-03-13T07:10:47.082Z,9.25
2023-03-13T07:11:47.116Z,9.25
2023-03-13T07:12:47.089Z,9.16
2023-03-13T07:13:47.094Z,9.26
2023-03-13T07:14:47.102Z,9.25
2023-03-13T07:15:47.106Z,9.25
2023-03-13T07:16:47.198Z,9.31
2023-03-13T07:17:47.105Z,9.25
2023-03-13T07:18:47.117Z,9.34
2023-03-13T07:19:47.109Z,9.40
2023-03-13T07:20:47.115Z,9.43
2023-03-13T07:21:47.124Z,9.36
2023-03-13T07:22:47.120Z,9.48
2023-03-13T07:23:47.136Z,9.47
2023-03-13T07:24:47.158Z,9.47
2023-03-13T07:25:47.131Z,9.55
2023-03-13T07:27:02.044Z,9.59
2023-03-13T07:27:47.174Z,9.58
2023-03-13T07:28:47.145Z,9.58
2023-03-13T07:29:47.139Z,9.76
2023-03-13T07:30:47.143Z,9.66
2023-03-13T07:31:47.247Z,9.79
2023-03-13T07:32:47.313Z,9.64
2023-03-13T07:33:47.161Z,9.74
2023-03-13T07:34:47.154Z,9.66
2023-03-13T07:35:47.164Z,9.73
2023-03-13T07:36:47.166Z,9.84
2023-03-13T07:37:47.166Z,9.82
2023-03-13T07:38:47.174Z,9.79
2023-03-13T07:39:47.168Z,9.83
2023-03-13T07:40:47.174Z,9.83
2023-03-13T07:41:47.180Z,9.82
2023-03-13T07:42:47.199Z,9.92
2023-03-13T07:43:47.207Z,9.95
2023-03-13T07:44:47.182Z,9.99
2023-03-13T07:45:47.253Z,9.94
2023-03-13T07:46:47.186Z,9.97
2023-03-13T07:47:47.191Z,9.92
2023-03-13T07:48:47.198Z,10.02
2023-03-13T07:49:47.198Z,10.01
2023-03-13T07:51:42.622Z,10.09
2023-03-13T07:52:29.750Z,10.15
2023-03-13T07:53:29.796Z,10.13
2023-03-13T07:54:29.748Z,10.15
2023-03-13T07:55:29.755Z,10.20
2023-03-13T07:56:29.754Z,10.26
2023-03-13T07:57:29.760Z,10.33
2023-03-13T07:58:29.772Z,10.28
2023-03-13T07:59:29.796Z,10.25
2023-03-13T08:00:29.771Z,10.30
2023-03-13T08:01:31.122Z,10.42
2023-03-13T08:02:29.822Z,10.44
2023-03-13T08:03:29.821Z,10.42
2023-03-13T08:04:29.783Z,10.48
2023-03-13T08:05:29.787Z,10.44
2023-03-13T08:06:31.348Z,10.44
2023-03-13T08:07:29.799Z,10.54
2023-03-13T08:08:29.801Z,10.49
2023-03-13T08:09:29.798Z,10.56
2023-03-13T08:10:29.812Z,10.64
2023-03-13T08:11:29.806Z,10.61
2023-03-13T08:12:29.808Z,10.67
2023-03-13T08:13:29.810Z,10.67
2023-03-13T08:14:29.826Z,10.67
2023-03-13T08:15:29.846Z,10.67
2023-03-13T08:16:29.873Z,10.75
2023-03-13T08:17:29.823Z,10.72
2023-03-13T08:18:29.854Z,10.81
2023-03-13T08:19:29.849Z,10.75
2023-03-13T08:20:29.834Z,10.81
2023-03-13T08:21:29.835Z,10.86
2023-03-13T08:22:29.847Z,10.84
2023-03-13T08:23:29.849Z,10.90
2023-03-13T08:25:42.448Z,10.94
2023-03-13T08:26:42.458Z,10.96
2023-03-13T08:27:42.450Z,10.92
2023-03-13T08:28:42.464Z,10.87
2023-03-13T08:29:42.460Z,10.97
2023-03-13T08:30:42.522Z,11.00
2023-03-13T08:31:42.464Z,10.97
2023-03-13T08:32:42.525Z,11.04
2023-03-13T08:33:42.480Z,10.94
2023-03-13T08:34:42.484Z,11.00
2023-03-13T08:35:42.552Z,11.05
2023-03-13T08:36:42.533Z,10.99
2023-03-13T08:37:42.500Z,11.05
2023-03-13T08:38:43.761Z,11.02
2023-03-13T08:39:42.495Z,11.14
2023-03-13T08:41:35.067Z,11.18
2023-03-13T08:42:35.071Z,11.27
2023-03-13T08:53:29.219Z,11.48
2023-03-13T08:54:29.222Z,11.54
2023-03-13T08:55:29.202Z,11.57
2023-03-13T08:56:29.204Z,11.59
2023-03-13T08:57:29.217Z,11.59
2023-03-13T08:58:29.220Z,11.69
2023-03-13T08:59:29.218Z,11.77
2023-03-13T09:00:29.231Z,11.70
2023-03-13T09:01:29.247Z,11.69
2023-03-13T09:02:29.250Z,11.81
2023-03-13T09:03:29.271Z,11.80
2023-03-13T09:06:01.877Z,12.04
2023-03-13T09:07:01.884Z,12.12
2023-03-13T09:08:01.883Z,12.25
2023-03-13T09:09:01.908Z,12.24
2023-03-13T09:10:01.900Z,12.28
2023-03-13T09:11:01.904Z,12.27
2023-03-13T09:12:01.964Z,12.43
2023-03-13T09:13:01.922Z,12.42
2023-03-13T09:14:01.943Z,12.50
2023-03-13T09:15:01.918Z,12.50
2023-03-13T09:16:01.977Z,12.54
2023-03-13T09:17:01.925Z,12.58
2023-03-13T09:18:01.970Z,12.65
2023-03-13T09:19:01.949Z,12.55
2023-03-13T09:20:01.967Z,12.62
2023-03-13T09:21:01.949Z,12.70
2023-03-13T09:22:01.964Z,12.72
2023-03-13T09:23:01.955Z,12.70
2023-03-13T09:24:01.996Z,12.80
2023-03-13T09:25:01.997Z,12.80
2023-03-13T09:26:01.975Z,12.80
2023-03-13T09:27:01.975Z,12.86
2023-03-13T09:28:01.984Z,12.83
2023-03-13T09:29:02.015Z,12.82
2023-03-13T09:30:01.987Z,12.86
2023-03-13T09:31:02.077Z,12.85
2023-03-13T09:32:02.008Z,12.83
2023-03-13T09:33:02.116Z,12.90
2023-03-13T09:34:02.099Z,12.83
2023-03-13T09:35:02.022Z,12.82
2023-03-13T09:36:02.061Z,12.87
2023-03-13T09:37:02.030Z,12.94
2023-03-13T09:38:02.037Z,12.93
2023-03-13T09:39:02.042Z,12.95
2023-03-13T09:40:02.031Z,12.97
2023-03-13T09:41:06.316Z,12.97
2023-03-13T09:42:02.044Z,12.86
2023-03-13T09:43:02.061Z,12.94
2023-03-13T09:44:02.054Z,12.98
2023-03-13T09:45:02.064Z,13.03
2023-03-13T09:46:02.148Z,13.08
2023-03-13T09:47:02.072Z,13.15
2023-03-13T09:48:02.088Z,13.18
2023-03-13T09:49:02.087Z,13.22
2023-03-13T09:50:02.088Z,13.20
2023-03-13T09:51:02.100Z,13.19
2023-03-13T09:52:02.113Z,13.31
2023-03-13T09:53:02.100Z,13.35
2023-03-13T09:54:02.124Z,13.38
2023-03-13T09:55:02.176Z,13.44
2023-03-13T09:56:02.124Z,13.56
2023-03-13T09:57:02.263Z,13.54
2023-03-13T09:58:02.145Z,13.78
2023-03-13T09:59:02.145Z,13.85
2023-03-13T10:00:02.154Z,14.03
2023-03-13T10:01:02.154Z,14.07
2023-03-13T10:02:02.259Z,14.32
2023-03-13T10:03:02.174Z,14.58
2023-03-13T10:04:02.192Z,14.65
2023-03-13T10:05:02.194Z,14.89
2023-03-13T10:06:02.185Z,15.15
2023-03-13T10:07:02.196Z,15.31
2023-03-13T10:08:02.195Z,15.84
2023-03-13T10:09:02.204Z,16.10
2023-03-13T10:10:02.208Z,16.43
2023-03-13T10:11:02.240Z,16.61
2023-03-13T10:12:02.226Z,16.68
2023-03-13T10:13:02.254Z,16.83
2023-03-13T10:14:02.246Z,16.84
2023-03-13T10:15:02.246Z,16.79
2023-03-13T10:16:02.316Z,16.74
2023-03-13T10:17:02.256Z,16.61
2023-03-13T10:18:02.265Z,16.58
2023-03-13T10:19:02.280Z,16.41
2023-03-13T10:20:02.301Z,16.31
2023-03-13T10:21:02.289Z,16.21
2023-03-13T10:22:02.305Z,16.12
2023-03-13T10:23:02.315Z,16.02
2023-03-13T10:24:02.315Z,16.01
2023-03-13T10:25:02.324Z,16.00
2023-03-13T10:26:02.342Z,16.04
2023-03-13T10:27:02.347Z,16.05
2023-03-13T10:28:02.367Z,16.17
2023-03-13T10:29:02.405Z,16.57
2023-03-13T10:30:02.382Z,16.79
2023-03-13T10:31:02.438Z,17.11
2023-03-13T10:32:02.404Z,17.44
2023-03-13T10:33:02.413Z,17.74
2023-03-13T10:34:02.403Z,17.98
2023-03-13T10:58:08.053Z,16.65
2023-03-13T10:59:08.037Z,16.68
2023-03-13T11:00:08.056Z,16.69
2023-03-13T11:01:08.060Z,16.65
2023-03-13T11:02:08.108Z,16.79
2023-03-13T11:03:08.222Z,16.76
2023-03-13T11:04:08.084Z,16.79
2023-03-13T11:05:08.095Z,16.61
2023-03-13T11:06:08.102Z,16.64
2023-03-13T11:07:08.113Z,16.61
2023-03-13T11:08:08.157Z,16.46
2023-03-13T11:09:08.121Z,16.33
2023-03-13T11:10:08.138Z,16.33
2023-03-13T11:11:08.137Z,16.32
2023-03-13T11:12:08.148Z,16.24
2023-03-13T11:13:08.153Z,16.26
2023-03-13T11:14:08.185Z,16.01
2023-03-13T11:15:08.278Z,16.13
2023-03-13T11:16:08.227Z,16.02
2023-03-13T11:17:08.190Z,16.01
2023-03-13T11:18:08.230Z,16.08
2023-03-13T11:19:08.237Z,15.95
2023-03-13T11:20:08.217Z,15.90
2023-03-13T11:21:17.813Z,15.90
2023-03-13T11:22:08.269Z,15.91
2023-03-13T11:23:08.242Z,15.79
2023-03-13T11:24:08.254Z,15.84
2023-03-13T11:25:08.256Z,15.76
2023-03-13T11:26:08.263Z,15.80
2023-03-13T11:27:08.369Z,15.79
2023-03-13T11:28:08.280Z,15.76
2023-03-13T11:29:08.284Z,15.76
2023-03-13T11:30:08.416Z,15.77
2023-03-13T11:31:08.392Z,15.72
2023-03-13T11:32:08.300Z,15.76
2023-03-13T11:33:08.308Z,15.77
2023-03-13T11:34:08.334Z,15.77
2023-03-13T11:35:08.333Z,15.73
2023-03-13T11:36:08.368Z,15.75
2023-03-13T11:37:08.347Z,15.76
2023-03-13T11:38:08.348Z,15.75
2023-03-13T11:39:08.363Z,15.76
2023-03-13T11:40:08.365Z,15.75
2023-03-13T11:41:08.378Z,15.79
2023-03-13T11:42:08.372Z,15.86
2023-03-13T11:43:23.602Z,15.82
2023-03-13T11:44:08.398Z,15.77
2023-03-13T11:45:08.404Z,15.76
2023-03-13T11:46:08.587Z,15.79
2023-03-13T11:47:08.458Z,15.80
2023-03-13T11:48:08.420Z,15.84
2023-03-13T11:49:08.426Z,15.77
2023-03-13T11:50:08.437Z,15.77
2023-03-13T11:51:08.480Z,15.91
2023-03-13T11:52:08.454Z,15.91
2023-03-13T11:53:08.540Z,15.92
2023-03-13T11:54:08.463Z,15.90
2023-03-13T11:55:08.476Z,15.88
2023-03-13T11:56:08.486Z,16.02
2023-03-13T11:57:08.491Z,16.12
2023-03-13T11:58:08.497Z,16.10
2023-03-13T11:59:08.518Z,16.04
2023-03-13T12:00:08.504Z,16.10
2023-03-13T12:01:08.607Z,16.15
2023-03-13T12:02:08.618Z,16.10
2023-03-13T12:03:08.578Z,16.21
2023-03-13T12:04:08.544Z,16.24
2023-03-13T12:05:08.618Z,16.29
2023-03-13T12:06:15.829Z,16.29
2023-03-13T12:07:08.564Z,16.41
2023-03-13T12:08:08.566Z,16.54
2023-03-13T12:09:08.590Z,16.57
2023-03-13T12:10:08.597Z,16.64
2023-03-13T12:11:08.598Z,16.66
2023-03-13T12:12:08.606Z,16.71
2023-03-13T12:13:08.606Z,16.75
2023-03-13T12:14:08.615Z,16.89
2023-03-13T12:15:08.622Z,16.76
2023-03-13T12:16:08.648Z,16.83
2023-03-13T12:17:08.646Z,17.02
2023-03-13T12:18:08.689Z,17.08
2023-03-13T12:19:08.669Z,17.11
2023-03-13T12:20:08.673Z,17.14
2023-03-13T12:21:08.671Z,17.14
2023-03-13T12:22:08.738Z,17.11
2023-03-13T12:23:08.694Z,17.15
2023-03-13T12:24:08.786Z,17.12
2023-03-13T12:25:08.731Z,17.06
2023-03-13T12:26:08.743Z,17.12
2023-03-13T12:27:08.724Z,17.09
2023-03-13T12:28:08.857Z,17.19
2023-03-13T12:29:08.744Z,17.19
2023-03-13T12:30:08.754Z,17.14
2023-03-13T12:31:08.875Z,17.01
2023-03-13T12:32:08.772Z,17.02
2023-03-13T12:33:08.782Z,17.08
2023-03-13T12:34:08.817Z,16.99
2023-03-13T12:35:08.798Z,16.93
2023-03-13T12:36:08.865Z,16.90
2023-03-13T12:37:08.823Z,16.81
2023-03-13T12:38:08.827Z,16.84
2023-03-13T12:39:08.834Z,16.79
2023-03-13T12:40:11.639Z,16.65
2023-03-13T12:41:08.853Z,16.64
2023-03-13T12:42:08.868Z,16.58
2023-03-13T12:43:08.869Z,16.51
2023-03-13T12:44:09.652Z,16.53
2023-03-13T12:45:08.902Z,16.50
2023-03-13T12:46:09.094Z,16.41
2023-03-13T12:47:08.906Z,16.42
2023-03-13T12:48:08.953Z,16.36
2023-03-13T12:49:08.931Z,16.28
2023-03-13T12:50:08.953Z,16.28
2023-03-13T12:51:08.938Z,16.31
2023-03-13T12:52:08.943Z,16.23
2023-03-13T12:53:08.962Z,16.20
2023-03-13T12:54:09.022Z,16.28
2023-03-13T12:55:08.990Z,16.21
2023-03-13T12:56:08.989Z,16.24
2023-03-13T12:57:08.989Z,16.20
2023-03-13T12:58:08.992Z,16.24
2023-03-13T12:59:09.002Z,16.24
2023-03-13T13:00:09.014Z,16.17
2023-03-13T13:01:09.027Z,16.26
2023-03-13T13:02:09.021Z,16.41
2023-03-13T13:03:09.029Z,16.47
2023-03-13T13:04:09.071Z,16.53
2023-03-13T13:05:09.045Z,16.60
2023-03-13T13:06:09.080Z,16.66
2023-03-13T13:07:09.073Z,16.75
2023-03-13T13:08:09.065Z,16.79
2023-03-13T13:09:09.082Z,16.79
2023-03-13T13:10:09.096Z,16.79
2023-03-13T13:11:09.091Z,16.74
2023-03-13T13:12:09.097Z,16.79
2023-03-13T13:13:09.106Z,16.87
2023-03-13T13:14:09.121Z,16.91
2023-03-13T13:15:09.124Z,16.93
2023-03-13T13:16:09.251Z,16.91
2023-03-13T13:17:09.148Z,16.93
2023-03-13T13:18:09.149Z,16.99
2023-03-13T13:19:09.157Z,16.96
2023-03-13T13:20:09.168Z,16.94
2023-03-13T13:21:09.171Z,16.89
2023-03-13T13:22:09.258Z,16.94
2023-03-13T13:23:09.190Z,16.87
2023-03-13T13:24:09.202Z,16.90
2023-03-13T13:25:09.224Z,16.93
2023-03-13T13:26:09.216Z,16.91
2023-03-13T13:27:09.243Z,17.02
2023-03-13T13:29:16.845Z,17.11
2023-03-13T13:30:16.870Z,17.24
2023-03-13T13:31:17.085Z,17.24
2023-03-13T13:32:16.971Z,17.27
2023-03-13T13:33:16.888Z,17.36
2023-03-13T13:34:16.882Z,17.26
2023-03-13T13:35:16.903Z,17.31
2023-03-13T13:36:16.974Z,17.29
2023-03-13T13:43:09.428Z,17.42
2023-03-13T13:44:09.401Z,17.42
2023-03-13T13:45:09.426Z,17.33
2023-03-13T13:46:09.471Z,17.44
2023-03-13T13:47:09.427Z,17.29
2023-03-13T13:48:09.451Z,17.33
2023-03-13T13:49:09.461Z,17.41
2023-03-13T13:50:09.455Z,17.44
2023-03-13T13:51:09.481Z,17.46
2023-03-13T13:52:09.472Z,17.44
2023-03-13T13:53:09.486Z,17.44
2023-03-13T14:01:45.490Z,17.57
2023-03-13T14:02:45.301Z,17.51
2023-03-13T14:03:45.315Z,17.65
2023-03-13T14:04:45.416Z,17.64
2023-03-13T14:05:45.324Z,17.54
2023-03-13T14:06:45.356Z,17.56
2023-03-13T14:07:45.347Z,17.63
2023-03-13T14:08:45.375Z,17.57
2023-03-13T14:09:45.378Z,17.57
2023-03-13T14:10:45.395Z,17.60
2023-03-13T14:11:45.386Z,17.54
2023-03-13T14:12:45.394Z,17.57
2023-03-13T14:13:45.424Z,17.41
2023-03-13T14:14:45.438Z,17.59
2023-03-13T14:15:45.542Z,17.44
2023-03-13T14:16:45.433Z,17.46
2023-03-13T14:17:45.500Z,17.41
2023-03-13T14:18:45.452Z,17.46
2023-03-13T14:19:45.486Z,17.44
2023-03-13T14:20:45.470Z,17.44
2023-03-13T14:21:45.504Z,17.38
2023-03-13T14:22:45.509Z,17.36
2023-03-13T14:23:45.503Z,17.36
2023-03-13T14:24:45.528Z,17.38
2023-03-13T14:25:45.519Z,17.38
2023-03-13T14:26:45.546Z,17.36
2023-03-13T14:27:45.566Z,17.45
2023-03-13T14:28:45.565Z,17.46
2023-03-13T14:29:45.554Z,17.48
2023-03-13T14:30:45.594Z,17.42
2023-03-13T14:31:45.688Z,17.46
2023-03-13T14:32:45.656Z,17.57
2023-03-13T14:33:45.623Z,17.64
2023-03-13T14:34:45.622Z,17.63
2023-03-13T14:35:45.678Z,17.60
2023-03-13T14:36:45.647Z,17.56
2023-03-13T14:37:45.626Z,17.67
2023-03-13T14:38:45.657Z,17.54
2023-03-13T14:39:45.677Z,17.60
2023-03-13T14:40:45.685Z,17.68
2023-03-13T14:41:45.663Z,17.57
2023-03-13T14:42:45.672Z,17.63
2023-03-13T14:43:45.683Z,17.46
2023-03-13T14:44:45.735Z,17.42
2023-03-13T14:45:45.718Z,17.44
2023-03-13T14:46:45.771Z,17.63
2023-03-13T14:47:45.713Z,17.46
2023-03-13T14:48:45.820Z,17.44
2023-03-13T14:49:45.825Z,17.44
2023-03-13T14:50:45.767Z,17.42
2023-03-13T14:51:45.758Z,17.44
2023-03-13T14:52:45.754Z,17.48
2023-03-13T14:53:45.769Z,17.45
2023-03-13T14:54:45.771Z,17.46
2023-03-13T14:55:45.790Z,17.42
2023-03-13T14:56:45.813Z,17.46
2023-03-13T14:57:45.818Z,17.44
2023-03-13T14:58:45.827Z,17.44
2023-03-13T14:59:45.835Z,17.41
2023-03-13T15:00:45.942Z,17.38
2023-03-13T15:01:45.852Z,17.36
2023-03-13T15:02:45.841Z,17.39
2023-03-13T15:03:45.851Z,17.33
2023-03-13T15:04:46.017Z,17.36
2023-03-13T15:05:45.910Z,17.31
2023-03-13T15:06:45.896Z,17.30
2023-03-13T15:07:45.882Z,17.29
2023-03-13T15:08:45.910Z,17.31
2023-03-13T15:09:45.896Z,17.33
2023-03-13T15:10:45.934Z,17.34
2023-03-13T15:11:45.919Z,17.33
2023-03-13T15:12:45.943Z,17.30
2023-03-13T15:13:45.957Z,17.31
2023-03-13T15:14:45.965Z,17.31
2023-03-13T15:15:45.971Z,17.23
2023-03-13T15:16:46.028Z,17.22
2023-03-13T15:17:45.996Z,17.27
2023-03-13T15:18:45.995Z,17.20
2023-03-13T15:19:46.001Z,17.26
2023-03-13T15:20:46.009Z,17.23
2023-03-13T15:21:46.110Z,17.11
2023-03-13T15:22:46.041Z,17.14
2023-03-13T15:23:46.121Z,17.11
2023-03-13T15:24:59.602Z,17.14
2023-03-13T15:25:46.092Z,17.12
2023-03-13T15:26:48.600Z,17.08
2023-03-13T15:27:46.125Z,17.11
2023-03-13T15:28:46.132Z,17.02
2023-03-13T15:29:46.116Z,17.12
2023-03-13T15:30:46.118Z,17.02
2023-03-13T15:31:46.224Z,17.02
2023-03-13T15:32:46.233Z,17.04
2023-03-13T15:33:46.109Z,17.05
2023-03-13T15:34:46.131Z,16.99
2023-03-13T15:35:46.138Z,17.02
2023-03-13T15:36:46.151Z,17.02
2023-03-13T15:37:46.143Z,16.99
2023-03-13T15:38:46.151Z,16.94
2023-03-13T15:39:46.144Z,17.01
2023-03-13T15:40:46.148Z,16.94
2023-03-13T15:41:46.205Z,16.90
2023-03-13T15:42:46.170Z,16.90
2023-03-13T15:43:46.191Z,16.91
2023-03-13T15:44:46.202Z,16.94
2023-03-13T15:45:46.262Z,16.91
2023-03-13T15:46:46.225Z,16.84
2023-03-13T15:47:46.308Z,16.79
2023-03-13T15:48:46.231Z,16.90
2023-03-13T15:49:46.241Z,16.89
2023-03-13T15:50:46.232Z,16.90
2023-03-13T15:51:46.253Z,16.96
2023-03-13T15:52:46.257Z,16.99
2023-03-13T15:53:46.547Z,16.97
2023-03-13T15:54:46.280Z,16.99
2023-03-13T15:55:46.270Z,17.11
2023-03-13T15:56:46.296Z,17.05
2023-03-13T15:57:46.303Z,17.23
2023-03-13T15:58:46.310Z,17.22
2023-03-13T15:59:46.319Z,17.23
2023-03-13T16:00:46.342Z,17.27
2023-03-13T16:01:46.337Z,17.33
2023-03-13T16:02:46.328Z,17.27
2023-03-13T16:03:46.358Z,17.38
2023-03-13T16:04:46.456Z,17.41
2023-03-13T16:05:46.369Z,17.30
2023-03-13T16:06:46.380Z,17.27
2023-03-13T16:07:46.385Z,17.36
2023-03-13T16:08:46.424Z,17.31
2023-03-13T16:09:46.434Z,17.31
2023-03-13T16:10:46.425Z,17.26
2023-03-13T16:11:46.409Z,17.34
2023-03-13T16:12:46.408Z,17.34
2023-03-13T16:13:46.458Z,17.30
2023-03-13T16:14:46.427Z,17.29
2023-03-13T16:15:46.439Z,17.19
2023-03-13T16:16:46.551Z,17.22
2023-03-13T16:17:46.499Z,17.08
2023-03-13T16:18:46.461Z,16.99
2023-03-13T16:19:46.484Z,17.04
2023-03-13T16:20:46.583Z,16.96
2023-03-13T16:21:46.501Z,16.97
2023-03-13T16:22:46.540Z,16.97
2023-03-13T16:23:46.545Z,16.89
2023-03-13T16:24:46.554Z,16.83
2023-03-13T16:25:46.660Z,16.79
2023-03-13T16:26:46.522Z,16.83
2023-03-13T16:27:46.552Z,16.89
2023-03-13T16:28:46.577Z,16.81
2023-03-13T16:29:46.680Z,16.91
2023-03-13T16:30:46.697Z,16.75
2023-03-13T16:31:46.589Z,16.83
2023-03-13T16:32:46.637Z,16.79
2023-03-13T16:33:46.638Z,16.87
2023-03-13T16:34:46.632Z,16.78
2023-03-13T16:35:46.676Z,16.79
2023-03-13T16:36:46.669Z,16.76
2023-03-13T16:37:46.665Z,16.79
2023-03-13T16:38:46.658Z,16.76
2023-03-13T16:39:46.669Z,16.76
2023-03-13T16:40:46.678Z,16.76
2023-03-13T16:41:46.710Z,16.83
2023-03-13T16:42:46.693Z,16.81
2023-03-13T16:43:46.722Z,16.76
2023-03-13T16:44:46.711Z,16.75
2023-03-13T16:45:46.731Z,16.76
2023-03-13T16:47:04.177Z,16.76
2023-03-13T16:47:46.759Z,16.69
2023-03-13T16:48:46.740Z,16.71
2023-03-13T16:49:47.544Z,16.64
2023-03-13T16:50:46.709Z,16.61
2023-03-13T16:51:46.730Z,16.61
2023-03-13T16:52:46.822Z,16.54
2023-03-13T16:53:46.807Z,16.54
2023-03-13T16:54:46.806Z,16.58
2023-03-13T16:55:46.746Z,16.46
2023-03-13T16:56:46.753Z,16.42
2023-03-13T16:57:46.836Z,16.33
2023-03-13T16:58:46.787Z,16.28
2023-03-13T16:59:46.818Z,16.38
2023-03-13T17:00:59.277Z,16.24
2023-03-13T17:01:46.809Z,16.28
2023-03-13T17:02:46.903Z,16.17
2023-03-13T17:03:46.825Z,16.17
2023-03-13T17:04:46.962Z,16.12
2023-03-13T17:05:46.818Z,16.08
2023-03-13T17:06:46.846Z,16.08
2023-03-13T17:07:46.831Z,16.13
2023-03-13T17:08:46.839Z,16.00
2023-03-13T17:09:46.854Z,16.02
2023-03-13T17:11:46.865Z,16.02
2023-03-13T17:12:46.869Z,16.00
2023-03-13T17:13:46.940Z,15.83
2023-03-13T17:14:46.968Z,15.92
2023-03-13T17:15:46.988Z,15.86
2023-03-13T17:16:46.894Z,15.86
2023-03-13T17:17:47.100Z,15.80
2023-03-13T17:18:46.916Z,15.83
2023-03-13T17:19:46.966Z,15.79
2023-03-13T17:20:46.920Z,15.75
2023-03-13T17:21:46.929Z,15.80
2023-03-13T17:22:46.934Z,15.70
2023-03-13T17:23:46.961Z,15.73
2023-03-13T17:24:46.949Z,15.73
2023-03-13T17:25:46.981Z,15.72
2023-03-13T17:26:46.983Z,15.64
2023-03-13T17:27:46.969Z,15.70
2023-03-13T17:28:46.976Z,15.70
2023-03-13T17:29:47.005Z,15.58
2023-03-13T17:30:46.990Z,15.58
2023-03-13T17:31:47.001Z,15.67
2023-03-13T17:32:47.120Z,15.57
2023-03-13T17:33:47.030Z,15.58
2023-03-13T17:34:47.058Z,15.54
2023-03-13T17:35:47.062Z,15.46
2023-03-13T17:36:47.031Z,15.49
2023-03-13T17:37:47.071Z,15.51